Ifestos 2 — SW5647 — position and weather

sailwx.info

Track history (hours):
 
Tides and Currents Weather Stations Pressure Air Temp Water Temp Dewpoint Dewpoint Depression Visibility Wind Speed Wind Dir Waves Ship Positions

Ifestos 2

Last reported at 2018-Feb-23 20:04 UTC. Time now 2018-Feb-24 18:29 UTC.
Position N 37°57' E 023°36'.

Length 30 m; draft 3.3 m.

Type: Tug. MMSI: 237070600.

Date/timePositionNaut miles runAvg speedWind from/ knotsBaromVisibWave heightAir tempDewpointWater temp
2018-Feb-23 20:04N 37°57' E 023°36'0 0.0
2018-Feb-23 20:00N 37°57' E 023°36'1 1.7
2018-Feb-23 19:30N 37°57' E 023°35'1 2.1
2018-Feb-23 19:00N 37°56' E 023°35'2 3.5
2018-Feb-23 18:30N 37°57' E 023°36'0 0.0
2018-Feb-23 18:00N 37°57' E 023°36'0 0.0
2018-Feb-23 17:30N 37°57' E 023°36'0 0.0
2018-Feb-23 17:00N 37°57' E 023°36'0 0.0
2018-Feb-23 16:30N 37°57' E 023°36'0 0.0
2018-Feb-23 16:00N 37°57' E 023°36'0 0.0
2018-Feb-23 15:30N 37°57' E 023°36'0 0.0
2018-Feb-23 15:00N 37°57' E 023°36'0 0.0
2018-Feb-23 14:30N 37°57' E 023°36'0 0.0
2018-Feb-23 14:00N 37°57' E 023°36'1 1.1
2018-Feb-23 13:30N 37°57' E 023°36'4 7.8
2018-Feb-23 13:00N 38°00' E 023°33'3 5.4
2018-Feb-23 12:30N 38°02' E 023°30'0 0.2
2018-Feb-23 12:00N 38°02' E 023°30'2 4.7
2018-Feb-23 11:30N 38°00' E 023°28'3 6.7
2018-Feb-23 11:00N 37°58' E 023°25'1 1.3
2018-Feb-23 10:30N 37°58' E 023°24'0 0.5
2018-Feb-23 10:00N 37°57' E 023°24'1 2.7
2018-Feb-23 09:30N 37°57' E 023°23'2 3.1
2018-Feb-23 09:00N 37°58' E 023°24'1 2.1
2018-Feb-23 08:30N 37°59' E 023°25'5 9.9
2018-Feb-23 08:00N 38°01' E 023°30'1 1.1
2018-Feb-23 07:30N 38°02' E 023°30'2 3.4
2018-Feb-23 07:00N 38°01' E 023°32'4 8.9
2018-Feb-23 06:30N 37°57' E 023°35'1 1.4
2018-Feb-23 06:01N 37°57' E 023°36'1 1.3
2018-Feb-23 05:29N 37°57' E 023°37'0 0.0
2018-Feb-23 05:00N 37°57' E 023°37'0 0.0
2018-Feb-23 04:31N 37°57' E 023°37'  
Track history (hours):
 
Tides and Currents Weather Stations Pressure Air Temp Water Temp Dewpoint Dewpoint Depression Visibility Wind Speed Wind Dir Waves Ship Positions

Ifestos 2

Last reported at 2018-Feb-23 20:04 UTC. Time now 2018-Feb-24 18:29 UTC.
Position N 37°57' E 023°36'.

Length 30 m; draft 3.3 m.

Type: Tug. MMSI: 237070600.

Date/timePositionNaut miles runAvg speedWind from/ knotsBaromVisibWave heightAir tempDewpointWater temp
2018-Feb-23 20:04N 37°57' E 023°36'0 0.0
2018-Feb-23 20:00N 37°57' E 023°36'1 1.7
2018-Feb-23 19:30N 37°57' E 023°35'1 2.1
2018-Feb-23 19:00N 37°56' E 023°35'2 3.5
2018-Feb-23 18:30N 37°57' E 023°36'0 0.0
2018-Feb-23 18:00N 37°57' E 023°36'0 0.0
2018-Feb-23 17:30N 37°57' E 023°36'0 0.0
2018-Feb-23 17:00N 37°57' E 023°36'0 0.0
2018-Feb-23 16:30N 37°57' E 023°36'0 0.0
2018-Feb-23 16:00N 37°57' E 023°36'0 0.0
2018-Feb-23 15:30N 37°57' E 023°36'0 0.0
2018-Feb-23 15:00N 37°57' E 023°36'0 0.0
2018-Feb-23 14:30N 37°57' E 023°36'0 0.0
2018-Feb-23 14:00N 37°57' E 023°36'1 1.1
2018-Feb-23 13:30N 37°57' E 023°36'4 7.8
2018-Feb-23 13:00N 38°00' E 023°33'3 5.4
2018-Feb-23 12:30N 38°02' E 023°30'0 0.2
2018-Feb-23 12:00N 38°02' E 023°30'2 4.7
2018-Feb-23 11:30N 38°00' E 023°28'3 6.7
2018-Feb-23 11:00N 37°58' E 023°25'1 1.3
2018-Feb-23 10:30N 37°58' E 023°24'0 0.5
2018-Feb-23 10:00N 37°57' E 023°24'1 2.7
2018-Feb-23 09:30N 37°57' E 023°23'2 3.1
2018-Feb-23 09:00N 37°58' E 023°24'1 2.1
2018-Feb-23 08:30N 37°59' E 023°25'5 9.9
2018-Feb-23 08:00N 38°01' E 023°30'1 1.1
2018-Feb-23 07:30N 38°02' E 023°30'2 3.4
2018-Feb-23 07:00N 38°01' E 023°32'4 8.9
2018-Feb-23 06:30N 37°57' E 023°35'1 1.4
2018-Feb-23 06:01N 37°57' E 023°36'1 1.3
2018-Feb-23 05:29N 37°57' E 023°37'0 0.0
2018-Feb-23 05:00N 37°57' E 023°37'0 0.0
2018-Feb-23 04:31N 37°57' E 023°37'  

Dump ship's entire track history